createdAt,value
2022-12-28T00:00:39.647Z,77.96
2022-12-28T00:03:29.856Z,77.85
2022-12-28T00:06:21.374Z,78.15
2022-12-28T00:09:12.918Z,78.00
2022-12-28T00:12:02.358Z,77.80
2022-12-28T00:14:53.053Z,77.81
2022-12-28T00:17:42.250Z,78.17
2022-12-28T00:20:31.483Z,77.78
2022-12-28T00:23:20.752Z,77.90
2022-12-28T00:26:12.657Z,77.43
2022-12-28T00:29:05.087Z,77.82
2022-12-28T00:31:56.375Z,77.81
2022-12-28T00:34:46.568Z,77.60
2022-12-28T00:37:35.837Z,77.80
2022-12-28T00:40:26.950Z,77.83
2022-12-28T00:43:16.363Z,77.75
2022-12-28T00:46:06.117Z,78.06
2022-12-28T00:48:58.200Z,78.20
2022-12-28T00:51:48.825Z,78.34
2022-12-28T00:54:38.054Z,78.91
2022-12-28T00:57:27.386Z,79.05
2022-12-28T01:00:17.960Z,78.83
2022-12-28T01:03:07.351Z,79.18
2022-12-28T01:05:57.997Z,79.13
2022-12-28T01:08:47.746Z,79.36
2022-12-28T01:11:36.981Z,79.49
2022-12-28T01:14:26.593Z,79.12
2022-12-28T01:17:15.805Z,79.25
2022-12-28T01:20:08.070Z,78.88
2022-12-28T01:22:58.793Z,78.81
2022-12-28T01:25:47.982Z,78.30
2022-12-28T01:28:37.995Z,78.13
2022-12-28T01:31:28.153Z,78.15
2022-12-28T01:34:17.414Z,78.09
2022-12-28T01:37:09.095Z,77.30
2022-12-28T01:40:00.249Z,77.30
2022-12-28T01:42:49.547Z,77.22
2022-12-28T01:45:38.999Z,77.07
2022-12-28T01:48:28.404Z,77.13
2022-12-28T01:51:21.414Z,77.21
2022-12-28T01:54:11.194Z,77.06
2022-12-28T01:57:02.248Z,76.75
2022-12-28T02:00:01.935Z,77.05
2022-12-28T02:03:07.276Z,76.82
2022-12-28T02:06:05.110Z,76.46
2022-12-28T02:09:05.969Z,76.87
2022-12-28T02:11:55.821Z,76.55
2022-12-28T02:14:47.948Z,76.83
2022-12-28T02:17:37.275Z,76.68
2022-12-28T02:20:35.687Z,76.53
2022-12-28T02:23:41.617Z,76.68
2022-12-28T02:27:01.556Z,76.41
2022-12-28T02:30:04.518Z,76.75
2022-12-28T02:33:02.698Z,76.44
2022-12-28T02:35:59.459Z,76.41
2022-12-28T02:38:55.327Z,76.66
2022-12-28T02:41:46.684Z,76.03
2022-12-28T02:44:55.496Z,76.17
2022-12-28T02:48:06.573Z,75.94
2022-12-28T02:51:18.343Z,76.18
2022-12-28T02:54:54.021Z,75.85
2022-12-28T02:58:06.058Z,75.95
2022-12-28T03:01:14.798Z,75.92
2022-12-28T03:04:16.561Z,75.85
2022-12-28T03:07:32.593Z,75.75
2022-12-28T03:10:30.394Z,75.52
2022-12-28T03:13:44.025Z,75.23
2022-12-28T03:16:54.301Z,75.98
2022-12-28T03:20:12.329Z,75.81
2022-12-28T03:23:24.292Z,75.92
2022-12-28T03:26:33.054Z,75.92
2022-12-28T03:29:42.923Z,75.72
2022-12-28T03:32:32.474Z,75.89
2022-12-28T03:35:29.817Z,76.21
2022-12-28T03:38:28.305Z,75.60
2022-12-28T03:41:36.418Z,75.79
2022-12-28T03:44:42.534Z,75.68
2022-12-28T03:47:35.007Z,75.91
2022-12-28T03:50:25.915Z,75.80
2022-12-28T03:53:15.801Z,75.27
2022-12-28T03:56:12.101Z,75.63
2022-12-28T03:59:02.693Z,75.73
2022-12-28T04:02:01.659Z,75.69
2022-12-28T04:04:52.800Z,75.38
2022-12-28T04:07:43.580Z,75.58
2022-12-28T04:10:32.975Z,75.75
2022-12-28T04:13:22.632Z,75.51
2022-12-28T04:16:22.636Z,75.87
2022-12-28T04:19:11.956Z,75.71
2022-12-28T04:22:01.190Z,75.42
2022-12-28T04:24:52.002Z,75.69
2022-12-28T04:27:41.240Z,75.83
2022-12-28T04:30:41.241Z,75.69
2022-12-28T04:33:33.573Z,75.68
2022-12-28T04:36:22.771Z,75.72
2022-12-28T04:39:13.337Z,75.74
2022-12-28T04:42:03.979Z,75.72
2022-12-28T04:44:53.268Z,75.71
2022-12-28T04:47:42.714Z,75.90
2022-12-28T04:50:32.413Z,75.81
2022-12-28T04:53:22.524Z,76.09
2022-12-28T04:56:13.830Z,76.35
2022-12-28T04:59:04.454Z,75.61
2022-12-28T05:01:54.125Z,76.02
2022-12-28T05:04:43.513Z,75.99
2022-12-28T05:07:33.000Z,75.96
2022-12-28T05:10:22.677Z,76.20
2022-12-28T05:13:12.116Z,75.77
2022-12-28T05:16:04.781Z,75.92
2022-12-28T05:18:54.156Z,75.91
2022-12-28T05:21:43.392Z,75.37
2022-12-28T05:24:32.714Z,75.97
2022-12-28T05:27:22.395Z,75.38
2022-12-28T05:30:13.033Z,74.43
2022-12-28T05:33:03.632Z,74.65
2022-12-28T05:35:52.842Z,73.96
2022-12-28T05:38:42.128Z,74.01
2022-12-28T05:41:32.079Z,73.95
2022-12-28T05:44:21.304Z,73.96
2022-12-28T05:47:10.552Z,74.07
2022-12-28T05:50:01.352Z,74.71
2022-12-28T05:52:50.607Z,74.98
2022-12-28T05:55:39.822Z,75.40
2022-12-28T05:58:29.188Z,76.07
2022-12-28T06:01:20.930Z,76.95
2022-12-28T06:04:16.104Z,77.15
2022-12-28T06:07:07.021Z,77.95
2022-12-28T06:09:56.295Z,78.17
2022-12-28T06:12:45.525Z,78.21
2022-12-28T06:15:35.113Z,79.21
2022-12-28T06:18:24.389Z,79.79
2022-12-28T06:21:16.489Z,80.32
2022-12-28T06:24:09.147Z,80.55
2022-12-28T06:26:58.362Z,81.00
2022-12-28T06:29:47.560Z,81.24
2022-12-28T06:32:36.807Z,81.28
2022-12-28T06:35:26.073Z,82.08
2022-12-28T06:38:15.335Z,82.14
2022-12-28T06:41:14.997Z,82.52
2022-12-28T06:44:08.086Z,82.45
2022-12-28T06:46:57.298Z,82.56
2022-12-28T06:49:46.554Z,82.85
2022-12-28T06:52:35.943Z,82.53
2022-12-28T06:55:25.283Z,83.34
2022-12-28T06:58:15.921Z,84.56
2022-12-28T07:01:09.485Z,84.45
2022-12-28T07:04:00.335Z,85.67
2022-12-28T07:06:49.622Z,85.49
2022-12-28T07:09:38.913Z,85.16
2022-12-28T07:12:28.158Z,86.33
2022-12-28T07:15:18.951Z,85.47
2022-12-28T07:18:08.394Z,85.97
2022-12-28T07:21:02.241Z,86.00
2022-12-28T07:23:53.768Z,86.42
2022-12-28T07:26:42.970Z,87.03
2022-12-28T07:29:32.195Z,86.46
2022-12-28T07:32:22.858Z,87.20
2022-12-28T07:35:12.331Z,88.18
2022-12-28T07:38:01.538Z,87.91
2022-12-28T07:40:50.787Z,88.50
2022-12-28T07:43:40.315Z,88.46
2022-12-28T07:46:32.339Z,88.45
2022-12-28T07:49:22.954Z,88.56
2022-12-28T07:52:12.201Z,88.88
2022-12-28T07:55:01.415Z,88.68
2022-12-28T07:57:52.071Z,89.45
2022-12-28T08:00:41.299Z,89.42
2022-12-28T08:03:30.479Z,89.66
2022-12-28T08:06:23.131Z,89.87
2022-12-28T08:09:14.378Z,90.16
2022-12-28T08:12:03.696Z,90.53
2022-12-28T08:14:52.900Z,90.65
2022-12-28T08:17:42.158Z,91.17
2022-12-28T08:20:32.166Z,90.96
2022-12-28T08:23:22.889Z,90.83
2022-12-28T08:26:15.231Z,90.80
2022-12-28T08:29:07.532Z,90.84
2022-12-28T08:31:56.715Z,91.09
2022-12-28T08:34:45.920Z,90.91
2022-12-28T08:37:35.136Z,91.25
2022-12-28T08:40:29.915Z,91.41
2022-12-28T08:43:19.185Z,91.53
2022-12-28T08:46:13.633Z,91.95
2022-12-28T08:49:03.688Z,91.59
2022-12-28T08:51:53.002Z,91.64
2022-12-28T08:54:42.250Z,92.31
2022-12-28T08:57:34.010Z,92.14
2022-12-28T09:00:23.641Z,92.33
2022-12-28T09:03:12.995Z,92.55
2022-12-28T09:06:05.005Z,92.34
2022-12-28T09:09:05.525Z,92.14
2022-12-28T09:11:56.091Z,92.41
2022-12-28T09:14:46.693Z,92.62
2022-12-28T09:17:36.063Z,92.98
2022-12-28T09:20:25.257Z,92.97
2022-12-28T09:23:14.922Z,93.10
2022-12-28T09:26:09.370Z,93.78
2022-12-28T09:29:00.937Z,93.93
2022-12-28T09:31:51.572Z,93.95
2022-12-28T09:34:40.796Z,94.00
2022-12-28T09:37:30.013Z,94.26
2022-12-28T09:40:19.555Z,94.54
2022-12-28T09:43:13.061Z,95.08
2022-12-28T09:46:02.475Z,94.97
2022-12-28T09:48:58.850Z,94.74
2022-12-28T09:51:54.873Z,94.73
2022-12-28T09:54:44.166Z,94.80
2022-12-28T09:57:38.950Z,95.15
2022-12-28T10:00:38.725Z,94.94
2022-12-28T10:03:34.714Z,95.00
2022-12-28T10:06:29.129Z,95.05
2022-12-28T10:09:28.057Z,95.02
2022-12-28T10:12:21.113Z,95.84
2022-12-28T10:15:14.990Z,96.02
2022-12-28T10:18:05.872Z,95.64
2022-12-28T10:20:56.157Z,95.57
2022-12-28T10:27:00.580Z,95.51
2022-12-28T10:29:51.987Z,95.88
2022-12-28T10:32:55.510Z,96.02
2022-12-28T10:35:55.306Z,95.72
2022-12-28T10:38:52.121Z,95.83
2022-12-28T10:41:41.923Z,96.02
2022-12-28T10:44:41.863Z,96.28
2022-12-28T10:47:36.013Z,96.49
2022-12-28T10:50:54.277Z,96.46
2022-12-28T10:53:46.313Z,96.73
2022-12-28T10:56:50.295Z,96.43
2022-12-28T10:59:40.752Z,96.72
2022-12-28T11:02:32.744Z,96.83
2022-12-28T11:05:25.575Z,96.64
2022-12-28T11:08:15.697Z,96.98
2022-12-28T11:11:05.468Z,97.24
2022-12-28T11:14:01.046Z,97.14
2022-12-28T11:16:50.523Z,97.17
2022-12-28T11:19:39.843Z,96.63
2022-12-28T11:22:32.012Z,95.05
2022-12-28T11:25:27.469Z,95.69
2022-12-28T11:28:21.324Z,95.20
2022-12-28T11:31:23.863Z,95.28
2022-12-28T11:34:21.134Z,95.35
2022-12-28T11:37:14.684Z,95.83
2022-12-28T11:40:04.018Z,96.44
2022-12-28T11:42:57.351Z,96.41
2022-12-28T11:45:53.983Z,96.00
2022-12-28T11:49:04.687Z,96.41
2022-12-28T11:52:45.459Z,94.75
2022-12-28T11:55:50.803Z,94.74
2022-12-28T11:59:11.698Z,95.06
2022-12-28T12:02:02.158Z,95.13
2022-12-28T12:04:52.790Z,95.31
2022-12-28T12:07:49.912Z,95.22
2022-12-28T12:10:41.650Z,94.71
2022-12-28T12:13:45.598Z,94.20
2022-12-28T12:16:50.407Z,93.29
2022-12-28T12:19:48.353Z,94.21
2022-12-28T12:22:49.604Z,90.35
2022-12-28T12:25:44.208Z,87.81
2022-12-28T12:28:42.089Z,85.03
2022-12-28T12:31:35.145Z,85.76
2022-12-28T12:34:28.784Z,84.67
2022-12-28T12:37:47.697Z,84.35
2022-12-28T12:41:14.995Z,84.04
2022-12-28T12:44:24.391Z,84.27
2022-12-28T12:48:11.419Z,82.78
2022-12-28T12:51:17.099Z,82.72
2022-12-28T12:54:26.712Z,82.46
2022-12-28T12:57:22.056Z,81.59
2022-12-28T13:00:17.457Z,82.12
2022-12-28T13:03:31.098Z,81.47
2022-12-28T13:06:23.146Z,80.09
2022-12-28T13:09:19.448Z,80.11
2022-12-28T13:12:15.940Z,78.13
2022-12-28T13:15:12.404Z,79.31
2022-12-28T13:18:42.609Z,77.60
2022-12-28T13:21:20.712Z,77.55
2022-12-28T13:24:23.106Z,76.93
2022-12-28T13:27:22.055Z,75.74
2022-12-28T13:30:20.318Z,75.68
2022-12-28T13:33:22.789Z,75.47
2022-12-28T13:36:19.173Z,73.69
2022-12-28T13:39:15.195Z,73.58
2022-12-28T13:42:13.521Z,73.41
2022-12-28T13:45:05.165Z,72.54
2022-12-28T13:47:56.158Z,72.49
2022-12-28T13:50:45.483Z,72.15
2022-12-28T13:53:34.957Z,73.05
2022-12-28T13:56:25.222Z,72.95
2022-12-28T13:59:20.366Z,73.10
2022-12-28T14:02:14.349Z,73.28
2022-12-28T14:05:04.164Z,72.80
2022-12-28T14:07:56.261Z,72.82
2022-12-28T14:10:48.363Z,73.12
2022-12-28T14:13:38.277Z,73.60
2022-12-28T14:16:29.348Z,73.59
2022-12-28T14:19:18.849Z,74.21
2022-12-28T14:22:27.761Z,74.80
2022-12-28T14:25:19.512Z,75.27
2022-12-28T14:28:09.071Z,75.48
2022-12-28T14:30:59.541Z,75.36
2022-12-28T14:33:56.395Z,75.16
2022-12-28T14:36:52.535Z,75.28
2022-12-28T14:39:46.648Z,75.46
2022-12-28T14:42:36.094Z,75.54
2022-12-28T14:46:04.895Z,76.33
2022-12-28T14:48:50.328Z,76.30
2022-12-28T14:51:44.268Z,76.31
2022-12-28T14:54:35.612Z,76.75
2022-12-28T14:57:31.584Z,76.97
2022-12-28T15:00:27.375Z,77.12
2022-12-28T15:03:20.811Z,77.22
2022-12-28T15:06:10.091Z,77.07
2022-12-28T15:09:05.060Z,76.63
2022-12-28T15:12:14.028Z,76.73
2022-12-28T15:15:03.472Z,76.58
2022-12-28T15:17:52.807Z,76.11
2022-12-28T15:20:42.151Z,75.96
2022-12-28T15:23:31.429Z,76.77
2022-12-28T15:26:23.781Z,76.37
2022-12-28T15:29:18.825Z,76.52
2022-12-28T15:32:11.533Z,76.62
2022-12-28T15:35:00.721Z,76.28
2022-12-28T15:37:50.045Z,76.97
2022-12-28T15:40:41.258Z,76.83
2022-12-28T15:43:31.849Z,76.30
2022-12-28T15:46:21.526Z,76.93
2022-12-28T15:49:14.689Z,76.75
2022-12-28T15:52:03.733Z,76.77
2022-12-28T15:54:52.884Z,76.86
2022-12-28T15:57:42.112Z,76.61
2022-12-28T16:00:32.835Z,76.92
2022-12-28T16:03:22.930Z,76.63
2022-12-28T16:06:14.041Z,77.24
2022-12-28T16:09:03.974Z,77.18
2022-12-28T16:11:55.455Z,77.64
2022-12-28T16:14:47.811Z,78.13
2022-12-28T16:17:49.797Z,78.39
2022-12-28T16:20:42.520Z,78.84
2022-12-28T16:23:32.826Z,79.06
2022-12-28T16:26:23.234Z,79.44
2022-12-28T16:29:12.544Z,79.89
2022-12-28T16:32:02.490Z,79.59
2022-12-28T16:34:55.412Z,80.40
2022-12-28T16:37:44.642Z,80.58
2022-12-28T16:40:35.470Z,80.45
2022-12-28T16:43:25.340Z,80.61
2022-12-28T16:46:14.903Z,80.74
2022-12-28T16:49:05.439Z,80.95
2022-12-28T16:51:56.511Z,81.19
2022-12-28T16:54:45.721Z,81.54
2022-12-28T16:57:35.029Z,81.12
2022-12-28T17:00:25.226Z,80.83
2022-12-28T17:03:14.631Z,80.93
2022-12-28T17:06:04.697Z,80.47
2022-12-28T17:08:55.343Z,80.69
2022-12-28T17:11:47.109Z,80.58
2022-12-28T17:14:38.036Z,80.76
2022-12-28T17:17:27.642Z,80.56
2022-12-28T17:20:17.087Z,80.52
2022-12-28T17:23:07.233Z,80.88
2022-12-28T17:25:58.061Z,81.38
2022-12-28T17:28:47.637Z,81.12
2022-12-28T17:31:36.867Z,81.26
2022-12-28T17:34:26.270Z,81.59
2022-12-28T17:37:15.525Z,81.55
2022-12-28T17:40:05.302Z,81.75
2022-12-28T17:42:55.895Z,81.66
2022-12-28T17:45:45.161Z,80.98
2022-12-28T17:48:34.460Z,80.41
2022-12-28T17:51:25.640Z,80.20
2022-12-28T17:54:16.848Z,80.25
2022-12-28T17:57:06.137Z,80.24
2022-12-28T17:59:57.627Z,79.80
2022-12-28T18:02:47.674Z,79.32
2022-12-28T18:05:37.093Z,79.68
2022-12-28T18:08:26.333Z,79.01
2022-12-28T18:11:15.730Z,78.85
2022-12-28T18:14:05.015Z,78.46
2022-12-28T18:16:56.632Z,78.21
2022-12-28T18:19:46.022Z,77.67
2022-12-28T18:22:35.293Z,78.05
2022-12-28T18:25:25.068Z,77.92
2022-12-28T18:28:15.156Z,77.69
2022-12-28T18:31:06.213Z,77.40
2022-12-28T18:33:56.885Z,77.47
2022-12-28T18:36:46.384Z,77.24
2022-12-28T18:39:35.667Z,78.29
2022-12-28T18:42:25.923Z,79.40
2022-12-28T18:45:15.388Z,80.02
2022-12-28T18:48:04.892Z,80.91
2022-12-28T18:50:57.439Z,81.71
2022-12-28T18:53:47.332Z,80.61
2022-12-28T18:56:36.571Z,81.03
2022-12-28T18:59:25.873Z,81.51
2022-12-28T19:02:19.426Z,81.27
2022-12-28T19:05:09.706Z,82.30
2022-12-28T19:08:00.307Z,82.01
2022-12-28T19:10:51.099Z,81.68
2022-12-28T19:13:43.193Z,82.18
2022-12-28T19:16:32.708Z,82.14
2022-12-28T19:19:22.031Z,82.34
2022-12-28T19:22:11.345Z,81.85
2022-12-28T19:25:02.220Z,82.46
2022-12-28T19:27:51.888Z,83.08
2022-12-28T19:30:41.159Z,83.21
2022-12-28T19:33:30.637Z,83.28
2022-12-28T19:36:20.040Z,83.42
2022-12-28T19:39:09.343Z,82.35
2022-12-28T19:41:59.962Z,82.29
2022-12-28T19:44:49.225Z,82.40
2022-12-28T19:47:38.423Z,82.69
2022-12-28T19:50:27.734Z,82.94
2022-12-28T19:53:17.083Z,83.10
2022-12-28T19:56:09.065Z,83.74
2022-12-28T19:59:06.151Z,84.41
2022-12-28T20:01:56.603Z,85.86
2022-12-28T20:04:46.033Z,85.29
2022-12-28T20:07:39.531Z,86.36
2022-12-28T20:10:30.154Z,86.18
2022-12-28T20:13:19.617Z,87.04
2022-12-28T20:16:11.520Z,86.75
2022-12-28T20:19:01.803Z,87.06
2022-12-28T20:21:51.366Z,87.08
2022-12-28T20:24:40.691Z,87.71
2022-12-28T20:27:31.014Z,87.69
2022-12-28T20:30:20.685Z,87.39
2022-12-28T20:33:11.621Z,87.47
2022-12-28T20:36:04.034Z,86.92
2022-12-28T20:38:55.148Z,86.66
2022-12-28T20:42:01.685Z,86.05
2022-12-28T20:44:50.998Z,85.56
2022-12-28T20:47:40.384Z,85.38
2022-12-28T20:50:31.199Z,85.58
2022-12-28T20:53:20.576Z,85.72
2022-12-28T20:56:11.349Z,85.46
2022-12-28T20:59:00.692Z,85.55
2022-12-28T21:01:50.366Z,85.48
2022-12-28T21:04:39.787Z,85.47
2022-12-28T21:07:32.237Z,85.08
2022-12-28T21:10:21.655Z,85.15
2022-12-28T21:13:10.967Z,85.00
2022-12-28T21:16:03.778Z,85.37
2022-12-28T21:18:53.322Z,85.28
2022-12-28T21:21:42.931Z,85.28
2022-12-28T21:24:33.881Z,85.26
2022-12-28T21:27:23.171Z,85.55
2022-12-28T21:30:13.715Z,85.23
2022-12-28T21:33:03.129Z,84.90
2022-12-28T21:36:00.771Z,85.27
2022-12-28T21:38:50.971Z,84.42
2022-12-28T21:41:50.571Z,84.24
2022-12-28T21:44:40.399Z,84.39
2022-12-28T21:47:29.879Z,84.30
2022-12-28T21:50:19.431Z,84.23
2022-12-28T21:53:08.826Z,83.87
2022-12-28T21:55:58.351Z,83.93
2022-12-28T21:58:50.221Z,83.93
2022-12-28T22:01:58.808Z,83.87
2022-12-28T22:05:14.334Z,83.94
2022-12-28T22:08:17.456Z,84.28
2022-12-28T22:11:24.620Z,84.34
2022-12-28T22:14:15.337Z,84.22
2022-12-28T22:17:07.373Z,83.95
2022-12-28T22:20:00.255Z,84.43
2022-12-28T22:22:49.572Z,84.21
2022-12-28T22:25:39.095Z,83.91
2022-12-28T22:28:28.423Z,83.92
2022-12-28T22:31:19.289Z,83.80
2022-12-28T22:34:08.957Z,83.45
2022-12-28T22:36:58.251Z,83.70
2022-12-28T22:39:47.708Z,83.88
2022-12-28T22:42:40.759Z,84.05
2022-12-28T22:45:29.988Z,83.80
2022-12-28T22:48:20.597Z,83.62
2022-12-28T22:51:12.392Z,83.85
2022-12-28T22:54:01.665Z,83.80
2022-12-28T22:56:50.924Z,84.19
2022-12-28T22:59:40.233Z,83.93
2022-12-28T23:02:31.293Z,84.17
2022-12-28T23:05:22.034Z,84.64
2022-12-28T23:08:11.337Z,84.30
2022-12-28T23:11:02.909Z,84.61
2022-12-28T23:13:52.224Z,85.06
2022-12-28T23:16:40.559Z,85.13
2022-12-28T23:19:48.768Z,84.89
2022-12-28T23:22:56.886Z,85.41
2022-12-28T23:26:03.265Z,85.62
2022-12-28T23:28:52.612Z,85.55
2022-12-28T23:31:42.073Z,85.81
2022-12-28T23:34:31.452Z,86.16
2022-12-28T23:37:20.809Z,85.88
2022-12-28T23:40:16.032Z,85.66
2022-12-28T23:43:05.337Z,85.83
2022-12-28T23:45:54.750Z,85.93
2022-12-28T23:48:44.045Z,85.88
2022-12-28T23:51:33.271Z,85.69
2022-12-28T23:54:22.793Z,85.20
2022-12-28T23:57:13.480Z,85.21
